Time;durP1;ratioP1;P1;durP2;ratioP2;P2;SDS_P1;SDS_P2;PMS_P1;PMS_P2;Temp;Humidity;BMP_temperature;BMP_pressure;BME280_temperature;BME280_humidity;BME280_pressure;Samples;Min_cycle;Max_cycle;Signal;HPM_P1;HPM_P2
2022/09/23 00:00:30;;;;;;;4.30;1.83;;;8.80;99.90;;;;;;5006556;28;20065;-77
2022/09/23 00:02:58;;;;;;;2.58;1.13;;;8.80;99.90;;;;;;4991481;28;20104;-77
2022/09/23 00:05:25;;;;;;;3.05;1.15;;;8.80;99.90;;;;;;5008160;28;20058;-77
2022/09/23 00:07:50;;;;;;;3.22;1.50;;;8.80;99.90;;;;;;5008767;28;20061;-77
2022/09/23 00:10:16;;;;;;;2.72;1.52;;;8.80;99.90;;;;;;5007190;28;20033;-78
2022/09/23 00:12:42;;;;;;;3.28;1.98;;;8.80;99.90;;;;;;5007368;28;20049;-78
2022/09/23 00:15:10;;;;;;;3.28;1.40;;;8.80;99.90;;;;;;5006283;28;20493;-76
2022/09/23 00:17:36;;;;;;;3.05;1.75;;;8.80;99.90;;;;;;5008644;28;20084;-77
2022/09/23 00:20:02;;;;;;;3.72;1.73;;;8.70;99.90;;;;;;5008425;28;20033;-78
2022/09/23 00:22:28;;;;;;;2.72;1.50;;;8.70;99.90;;;;;;5008315;28;20076;-78
2022/09/23 00:24:53;;;;;;;4.03;1.65;;;8.70;99.90;;;;;;5007905;28;20030;-77
2022/09/23 00:27:20;;;;;;;5.47;1.75;;;8.70;99.90;;;;;;5006647;28;20431;-78
2022/09/23 00:29:47;;;;;;;4.95;1.75;;;8.60;99.90;;;;;;5006632;28;20038;-78
2022/09/23 00:32:13;;;;;;;2.22;1.27;;;8.60;99.90;;;;;;5008150;28;20459;-78
2022/09/23 00:34:39;;;;;;;3.15;1.65;;;8.60;99.90;;;;;;5006972;28;20033;-77
2022/09/23 00:37:04;;;;;;;3.78;1.45;;;8.60;99.90;;;;;;5007636;28;20022;-76
2022/09/23 00:39:30;;;;;;;2.85;1.60;;;8.60;99.90;;;;;;5007763;28;20025;-78
2022/09/23 00:41:56;;;;;;;4.30;1.67;;;8.60;99.90;;;;;;5006672;28;20491;-77
2022/09/23 00:44:51;;;;;;;3.05;1.63;;;8.60;99.90;;;;;;5005670;28;20041;-78
2022/09/23 00:47:25;;;;;;;4.03;1.63;;;8.50;99.90;;;;;;5007229;28;20034;-77
2022/09/23 00:50:01;;;;;;;3.22;1.65;;;8.50;99.90;;;;;;4986034;28;20053;-77
2022/09/23 00:52:27;;;;;;;2.92;1.60;;;8.50;99.90;;;;;;4989878;28;20034;-77
2022/09/23 00:54:55;;;;;;;2.95;1.60;;;8.50;99.90;;;;;;4990216;28;21227;-77
2022/09/23 00:57:22;;;;;;;2.35;1.33;;;8.40;99.90;;;;;;5006008;28;20033;-79
2022/09/23 00:59:49;;;;;;;2.97;1.55;;;8.50;99.90;;;;;;5006790;28;20025;-78
2022/09/23 01:02:16;;;;;;;2.90;1.52;;;8.40;99.90;;;;;;5006270;28;20084;-78
2022/09/23 01:04:42;;;;;;;3.58;1.67;;;8.40;99.90;;;;;;5006201;28;20390;-77
2022/09/23 01:07:07;;;;;;;2.83;1.58;;;8.40;99.90;;;;;;5005788;28;20234;-76
2022/09/23 01:09:34;;;;;;;3.85;1.67;;;8.40;99.90;;;;;;5005266;28;20100;-77
2022/09/23 01:12:37;;;;;;;4.63;1.95;;;8.40;99.90;;;;;;4989410;28;20033;-78
2022/09/23 01:15:19;;;;;;;2.45;1.40;;;8.30;99.90;;;;;;5006143;28;20596;-77
2022/09/23 01:17:54;;;;;;;2.85;1.52;;;8.40;99.90;;;;;;5006661;28;20026;-78
2022/09/23 01:20:47;;;;;;;3.28;1.20;;;8.30;99.90;;;;;;5022599;28;20069;-78
2022/09/23 01:23:37;;;;;;;3.20;1.63;;;8.40;99.90;;;;;;5005870;28;20456;-77
2022/09/23 01:26:37;;;;;;;3.20;1.80;;;8.40;99.90;;;;;;5005286;28;20132;-78
2022/09/23 01:29:02;;;;;;;3.17;1.60;;;8.30;99.90;;;;;;5022042;28;20501;-78
2022/09/23 01:31:47;;;;;;;3.17;1.60;;;8.30;99.90;;;;;;4989797;28;20042;-77
2022/09/23 01:34:48;;;;;;;2.60;1.60;;;8.30;99.90;;;;;;5006134;28;20034;-78
2022/09/23 01:37:34;;;;;;;3.30;1.63;;;8.20;99.90;;;;;;5004648;28;20045;-78
2022/09/23 01:40:24;;;;;;;2.47;1.63;;;8.30;99.90;;;;;;5002482;28;20050;-77
2022/09/23 01:42:56;;;;;;;2.65;1.40;;;8.20;99.90;;;;;;5022275;28;20070;-78
2022/09/23 01:45:46;;;;;;;2.80;1.50;;;8.10;99.90;;;;;;5007014;28;20030;-78
2022/09/23 01:48:33;;;;;;;2.50;1.40;;;8.10;99.90;;;;;;5022344;28;20071;-78
2022/09/23 01:51:18;;;;;;;2.88;1.83;;;8.10;99.90;;;;;;5007611;28;20026;-77
2022/09/23 01:53:50;;;;;;;3.13;1.38;;;8.10;99.90;;;;;;5003542;28;20022;-77
2022/09/23 01:56:39;;;;;;;2.75;1.58;;;8.10;99.90;;;;;;5005074;28;20030;-79
2022/09/23 01:59:17;;;;;;;3.28;1.63;;;8.00;99.90;;;;;;5002455;28;20033;-77
2022/09/23 02:02:08;;;;;;;3.67;1.38;;;8.00;99.90;;;;;;5005849;28;20025;-77
2022/09/23 02:04:50;;;;;;;3.00;1.70;;;7.90;99.90;;;;;;5014875;28;20398;-78
2022/09/23 02:07:32;;;;;;;4.07;1.60;;;8.00;99.90;;;;;;5006908;28;20042;-77
2022/09/23 02:10:23;;;;;;;2.92;1.08;;;7.90;99.90;;;;;;5005094;28;20033;-79
2022/09/23 02:12:53;;;;;;;3.20;1.30;;;7.90;99.90;;;;;;5022059;28;20053;-78
2022/09/23 02:15:27;;;;;;;2.85;1.40;;;8.00;99.90;;;;;;5008529;28;20432;-78
2022/09/23 02:17:58;;;;;;;3.72;1.33;;;7.90;99.90;;;;;;5010948;28;20025;-78
2022/09/23 02:20:42;;;;;;;2.75;1.23;;;7.90;99.90;;;;;;5009273;28;20026;-77
2022/09/23 02:23:15;;;;;;;2.67;1.50;;;7.80;99.90;;;;;;5008545;28;20211;-77
2022/09/23 02:26:01;;;;;;;2.47;1.13;;;7.80;99.90;;;;;;5010348;28;20041;-77
2022/09/23 02:28:52;;;;;;;2.83;1.30;;;7.80;99.90;;;;;;5009130;28;20258;-78
2022/09/23 02:31:40;;;;;;;2.35;1.17;;;7.60;99.90;;;;;;5010162;28;20537;-79
2022/09/23 02:34:26;;;;;;;3.95;1.65;;;7.70;99.90;;;;;;5025752;28;20076;-77
2022/09/23 02:37:05;;;;;;;2.83;1.08;;;7.90;99.90;;;;;;5010014;28;20026;-79
2022/09/23 02:39:41;;;;;;;2.22;1.25;;;7.90;99.90;;;;;;4990022;28;20034;-77
2022/09/23 02:42:12;;;;;;;2.35;1.15;;;7.90;99.90;;;;;;5009298;28;20072;-76
2022/09/23 02:44:39;;;;;;;3.22;1.50;;;7.90;99.90;;;;;;5010353;28;20435;-78
2022/09/23 02:47:05;;;;;;;3.80;1.40;;;7.90;99.90;;;;;;5025432;28;20041;-77
2022/09/23 02:49:32;;;;;;;2.38;1.30;;;7.90;99.90;;;;;;5009547;28;20030;-78
2022/09/23 02:52:03;;;;;;;5.43;2.40;;;7.80;99.90;;;;;;5010388;28;20034;-77
2022/09/23 02:54:29;;;;;;;2.83;1.20;;;7.80;99.90;;;;;;5007692;28;20556;-78
2022/09/23 02:56:56;;;;;;;3.97;1.95;;;7.80;99.90;;;;;;5010152;28;20026;-77
2022/09/23 02:59:23;;;;;;;2.47;1.35;;;7.80;99.90;;;;;;5008037;28;20071;-77
2022/09/23 03:02:22;;;;;;;3.00;1.05;;;7.80;99.90;;;;;;5008770;28;20072;-76
2022/09/23 03:05:05;;;;;;;2.80;1.40;;;7.80;99.90;;;;;;5008702;28;20034;-78
2022/09/23 03:07:55;;;;;;;4.00;1.25;;;7.80;99.90;;;;;;5008635;28;20038;-76
2022/09/23 03:10:31;;;;;;;3.13;1.60;;;7.80;99.90;;;;;;5009767;28;20117;-77
2022/09/23 03:13:28;;;;;;;2.50;1.25;;;7.90;99.90;;;;;;5023805;28;20390;-77
2022/09/23 03:16:33;;;;;;;2.17;1.20;;;7.90;99.90;;;;;;5009334;28;20041;-77
2022/09/23 03:19:32;;;;;;;2.38;1.20;;;7.80;99.90;;;;;;4955230;28;20038;-78
2022/09/23 03:22:12;;;;;;;2.20;1.20;;;7.90;99.90;;;;;;4958840;28;20089;-78
2022/09/23 03:24:41;;;;;;;2.63;1.23;;;7.90;99.90;;;;;;4986923;28;20590;-77
2022/09/23 03:27:17;;;;;;;3.03;1.20;;;7.90;99.90;;;;;;4970665;28;20073;-77
2022/09/23 03:29:47;;;;;;;2.42;1.25;;;7.90;99.90;;;;;;4971199;28;20514;-78
2022/09/23 03:32:16;;;;;;;3.08;1.50;;;7.90;99.90;;;;;;4970280;28;20065;-77
2022/09/23 03:34:43;;;;;;;2.60;1.25;;;8.00;99.90;;;;;;4987466;28;20034;-78
2022/09/23 03:37:13;;;;;;;3.30;2.13;;;7.90;99.90;;;;;;4969135;28;20054;-76
2022/09/23 03:39:42;;;;;;;4.57;1.70;;;7.80;99.90;;;;;;4987246;28;20077;-78
2022/09/23 03:42:18;;;;;;;2.47;1.33;;;7.80;99.90;;;;;;4969407;28;20138;-77
2022/09/23 03:44:50;;;;;;;2.13;1.27;;;7.80;99.90;;;;;;4986920;28;20129;-77
2022/09/23 03:47:15;;;;;;;3.20;1.48;;;7.80;99.90;;;;;;4986807;28;20798;-78
2022/09/23 03:49:45;;;;;;;3.08;1.77;;;7.80;99.90;;;;;;4986633;28;20121;-77
2022/09/23 03:52:11;;;;;;;4.28;1.88;;;7.80;99.90;;;;;;4970341;28;20624;-78
2022/09/23 03:54:37;;;;;;;3.20;1.88;;;7.80;99.90;;;;;;4998166;28;20041;-77
2022/09/23 03:57:02;;;;;;;3.95;1.38;;;7.80;99.90;;;;;;5007835;28;20065;-78
2022/09/23 03:59:29;;;;;;;2.47;1.50;;;7.80;99.90;;;;;;5006991;28;20037;-77
2022/09/23 04:01:55;;;;;;;3.45;1.23;;;7.80;99.90;;;;;;5024181;28;20072;-77
2022/09/23 04:04:21;;;;;;;3.40;1.60;;;7.80;99.90;;;;;;5023625;28;20380;-80
2022/09/23 04:06:47;;;;;;;2.33;1.65;;;7.80;99.90;;;;;;5006695;28;20045;-77
2022/09/23 04:09:12;;;;;;;2.30;1.35;;;7.80;99.90;;;;;;4991113;28;20399;-78
2022/09/23 04:11:38;;;;;;;3.22;1.42;;;7.80;99.90;;;;;;5008406;28;20028;-77
2022/09/23 04:14:04;;;;;;;3.05;1.80;;;7.70;99.90;;;;;;5008390;28;20537;-78
2022/09/23 04:16:30;;;;;;;2.13;1.10;;;7.70;99.90;;;;;;5007157;28;20113;-78
2022/09/23 04:18:55;;;;;;;2.63;1.48;;;7.80;99.90;;;;;;5006806;28;20026;-78
2022/09/23 04:21:21;;;;;;;2.67;1.42;;;7.80;99.90;;;;;;5006596;28;20089;-78
2022/09/23 04:23:47;;;;;;;2.15;1.48;;;7.80;99.90;;;;;;5006691;28;20030;-77
2022/09/23 04:26:13;;;;;;;2.55;1.13;;;7.90;99.90;;;;;;5006856;28;20042;-78
2022/09/23 04:28:39;;;;;;;2.72;1.55;;;7.90;99.90;;;;;;5008621;28;20463;-77
2022/09/23 04:31:05;;;;;;;2.03;0.90;;;8.00;99.90;;;;;;5006864;28;20080;-78
2022/09/23 04:33:32;;;;;;;2.70;1.17;;;8.00;99.90;;;;;;5008611;28;20030;-78
2022/09/23 04:35:58;;;;;;;2.40;1.00;;;7.90;99.90;;;;;;5008335;28;20123;-78
2022/09/23 04:38:23;;;;;;;2.70;1.30;;;8.00;99.90;;;;;;5021161;28;20526;-78
2022/09/23 04:40:49;;;;;;;2.05;0.98;;;8.00;99.90;;;;;;5007107;28;20033;-77
2022/09/23 04:43:15;;;;;;;2.08;0.98;;;8.00;99.90;;;;;;5005957;28;20048;-79
2022/09/23 04:45:44;;;;;;;2.65;1.00;;;7.90;99.90;;;;;;4990602;28;20041;-78
2022/09/23 04:48:11;;;;;;;2.17;1.05;;;8.00;99.90;;;;;;4988982;28;20052;-77
2022/09/23 04:50:37;;;;;;;2.72;0.90;;;8.00;99.90;;;;;;4990184;28;20029;-78
2022/09/23 04:53:03;;;;;;;2.00;0.82;;;8.00;99.90;;;;;;4990599;28;20034;-79
2022/09/23 04:55:29;;;;;;;1.80;0.70;;;8.00;99.90;;;;;;5007764;28;20573;-78
2022/09/23 04:57:55;;;;;;;2.60;1.05;;;8.10;99.90;;;;;;5007681;28;20417;-77
2022/09/23 05:00:22;;;;;;;1.50;0.70;;;8.10;99.90;;;;;;5007473;28;20030;-79
2022/09/23 05:02:49;;;;;;;1.40;0.70;;;8.10;99.90;;;;;;5006390;28;20422;-78
2022/09/23 05:05:19;;;;;;;1.75;0.80;;;8.10;99.90;;;;;;5006191;28;20375;-78
2022/09/23 05:07:47;;;;;;;2.72;1.17;;;8.10;99.90;;;;;;5006831;28;20097;-78
2022/09/23 05:10:13;;;;;;;2.88;1.05;;;8.10;99.90;;;;;;5006299;28;20026;-77
2022/09/23 05:12:39;;;;;;;2.53;0.70;;;8.20;99.90;;;;;;5006935;28;20024;-79
2022/09/23 05:15:05;;;;;;;1.73;0.98;;;8.20;99.90;;;;;;5007542;28;20474;-78
2022/09/23 05:17:31;;;;;;;1.40;0.65;;;8.20;99.90;;;;;;4990654;28;20031;-78
2022/09/23 05:19:57;;;;;;;2.10;0.90;;;8.30;99.90;;;;;;5006930;28;20026;-79
2022/09/23 05:22:25;;;;;;;1.92;0.80;;;8.20;99.90;;;;;;4989756;28;20100;-77
2022/09/23 05:24:52;;;;;;;1.77;0.75;;;8.20;99.90;;;;;;5005597;28;20485;-78
2022/09/23 05:27:18;;;;;;;2.45;1.10;;;8.20;99.90;;;;;;5005602;28;20385;-77
2022/09/23 05:29:44;;;;;;;2.08;0.80;;;8.30;99.90;;;;;;5006386;28;20029;-79
2022/09/23 05:32:09;;;;;;;2.75;1.05;;;8.30;99.90;;;;;;4989209;28;20478;-77
2022/09/23 05:34:35;;;;;;;2.08;0.70;;;8.30;99.90;;;;;;5006246;28;20355;-76
2022/09/23 05:37:01;;;;;;;2.80;1.13;;;8.30;99.90;;;;;;5021950;28;20038;-78
2022/09/23 05:39:27;;;;;;;1.35;0.60;;;8.40;99.90;;;;;;5006119;28;20470;-78
2022/09/23 05:41:54;;;;;;;2.28;1.25;;;8.40;99.90;;;;;;5007267;28;20044;-78
2022/09/23 05:44:20;;;;;;;2.13;0.70;;;8.40;99.90;;;;;;5006794;28;20030;-78
2022/09/23 05:46:46;;;;;;;3.17;0.80;;;8.50;99.90;;;;;;5007150;28;20033;-78
2022/09/23 05:49:11;;;;;;;4.13;1.10;;;8.40;99.90;;;;;;5006729;28;20025;-78
2022/09/23 05:51:37;;;;;;;1.92;0.80;;;8.50;99.90;;;;;;5009276;28;20276;-77
2022/09/23 05:54:04;;;;;;;1.55;0.75;;;8.60;99.90;;;;;;5010992;28;20017;-78
2022/09/23 05:56:31;;;;;;;2.05;0.80;;;8.60;99.90;;;;;;4993041;28;20080;-77
2022/09/23 05:58:59;;;;;;;1.90;0.80;;;8.70;99.90;;;;;;5010955;28;20110;-78
2022/09/23 06:01:27;;;;;;;3.90;1.33;;;8.70;99.90;;;;;;5010636;28;20057;-78
2022/09/23 06:03:55;;;;;;;1.98;0.80;;;8.70;99.90;;;;;;4991209;28;20046;-78
2022/09/23 06:06:35;;;;;;;2.30;0.73;;;8.70;99.90;;;;;;5023642;28;20462;-76
2022/09/23 06:09:01;;;;;;;;;;;8.90;99.90;;;;;;5008632;28;20018;-78
2022/09/23 06:11:30;;;;;;;2.00;0.68;;;8.80;99.90;;;;;;5008873;28;19913;-79
2022/09/23 06:14:01;;;;;;;2.03;1.10;;;8.90;99.90;;;;;;5010671;28;20021;-78
2022/09/23 06:16:28;;;;;;;2.47;1.08;;;9.00;99.90;;;;;;5009584;28;20037;-78
2022/09/23 06:18:54;;;;;;;3.50;0.93;;;9.00;99.90;;;;;;5009248;28;20101;-79
2022/09/23 06:21:20;;;;;;;1.60;0.80;;;9.10;99.90;;;;;;5024740;28;20165;-79
2022/09/23 06:23:46;;;;;;;2.70;0.93;;;9.10;99.90;;;;;;5008698;28;20068;-78
2022/09/23 06:26:15;;;;;;;1.75;0.88;;;9.20;99.90;;;;;;5008927;28;20575;-78
2022/09/23 06:28:42;;;;;;;2.20;1.00;;;9.20;99.90;;;;;;5008971;28;20371;-78
2022/09/23 06:31:14;;;;;;;2.65;0.80;;;9.20;99.90;;;;;;5009391;28;20094;-78
2022/09/23 06:33:41;;;;;;;3.55;1.08;;;9.30;99.90;;;;;;5008440;28;20625;-79
2022/09/23 06:36:08;;;;;;;4.22;0.90;;;9.30;99.90;;;;;;4992449;28;20048;-78
2022/09/23 06:38:34;;;;;;;2.20;1.10;;;9.30;99.90;;;;;;5007709;28;20030;-78
2022/09/23 06:41:01;;;;;;;2.78;1.10;;;9.40;99.90;;;;;;5009243;28;20109;-79
2022/09/23 06:43:28;;;;;;;4.40;1.00;;;9.40;99.90;;;;;;5006948;28;20506;-78
2022/09/23 06:46:04;;;;;;;2.20;0.80;;;9.50;99.90;;;;;;5008633;28;20038;-79
2022/09/23 06:48:33;;;;;;;2.30;0.82;;;9.50;99.90;;;;;;5007489;28;20037;-78
2022/09/23 06:51:04;;;;;;;1.70;0.90;;;9.60;99.90;;;;;;4992159;28;20026;-77
2022/09/23 06:53:31;;;;;;;;;;;9.70;99.90;;;;;;5007322;28;20038;-78
2022/09/23 06:56:06;;;;;;;2.63;0.80;;;9.80;99.90;;;;;;5025232;28;19944;-78
2022/09/23 06:58:34;;;;;;;1.70;0.65;;;9.80;99.90;;;;;;5009199;28;20033;-79
2022/09/23 07:01:05;;;;;;;1.98;0.68;;;9.90;99.90;;;;;;5008176;28;20055;-77
2022/09/23 07:03:31;;;;;;;1.85;0.98;;;9.90;99.90;;;;;;4991628;28;20117;-78
2022/09/23 07:05:58;;;;;;;2.08;0.77;;;10.00;99.90;;;;;;5008036;28;20125;-77
2022/09/23 07:08:26;;;;;;;1.95;0.80;;;10.00;99.90;;;;;;5008937;28;20034;-79
2022/09/23 07:10:52;;;;;;;2.17;1.02;;;10.10;99.90;;;;;;5009230;28;20470;-79
2022/09/23 07:13:18;;;;;;;1.35;0.70;;;10.10;99.90;;;;;;5007948;28;20435;-79
2022/09/23 07:15:55;;;;;;;2.70;0.75;;;10.20;99.90;;;;;;5009350;28;20033;-80
2022/09/23 07:18:24;;;;;;;2.25;0.90;;;10.30;99.90;;;;;;5008819;28;20025;-78
2022/09/23 07:20:51;;;;;;;1.48;0.70;;;10.30;99.90;;;;;;5008085;28;20040;-79
2022/09/23 07:23:17;;;;;;;2.33;0.75;;;10.50;99.90;;;;;;5007112;28;20025;-78
2022/09/23 07:25:45;;;;;;;1.63;0.60;;;10.60;99.90;;;;;;5007185;28;20034;-77
2022/09/23 07:28:11;;;;;;;1.38;0.60;;;10.60;99.90;;;;;;5007626;28;20079;-79
2022/09/23 07:30:38;;;;;;;2.30;0.80;;;10.70;99.90;;;;;;4991041;28;20034;-77
2022/09/23 07:33:05;;;;;;;1.42;0.70;;;10.70;99.90;;;;;;5007016;28;20072;-79
2022/09/23 07:35:32;;;;;;;4.10;0.73;;;10.80;99.90;;;;;;5008933;28;20100;-78
2022/09/23 07:37:58;;;;;;;1.40;0.70;;;10.90;99.90;;;;;;5006186;28;20110;-79
2022/09/23 07:40:24;;;;;;;2.05;0.70;;;10.90;99.90;;;;;;5007296;28;20029;-77
2022/09/23 07:42:49;;;;;;;1.40;0.60;;;10.90;99.90;;;;;;5007031;28;20046;-78
2022/09/23 07:45:15;;;;;;;1.70;0.82;;;11.00;99.90;;;;;;4990368;28;20304;-79
2022/09/23 07:47:41;;;;;;;1.92;0.90;;;11.00;99.90;;;;;;5007692;28;20033;-78
2022/09/23 07:50:11;;;;;;;3.53;0.73;;;11.10;99.90;;;;;;4990967;28;20076;-78
2022/09/23 07:52:38;;;;;;;2.65;1.00;;;11.20;99.90;;;;;;5008683;28;20109;-79
2022/09/23 07:55:04;;;;;;;2.20;0.90;;;11.20;99.90;;;;;;5007887;28;20558;-79
2022/09/23 07:57:30;;;;;;;3.85;0.95;;;11.20;99.90;;;;;;5007048;28;20554;-79
2022/09/23 07:59:56;;;;;;;1.70;0.73;;;11.30;99.90;;;;;;5008130;28;20022;-78
2022/09/23 08:02:21;;;;;;;1.67;0.90;;;11.40;99.90;;;;;;5007061;28;20443;-77
2022/09/23 08:04:48;;;;;;;1.65;0.80;;;11.50;99.90;;;;;;5006941;28;20033;-78
2022/09/23 08:07:15;;;;;;;2.58;0.77;;;11.50;99.90;;;;;;4990828;28;20136;-79
2022/09/23 08:09:42;;;;;;;2.45;0.73;;;11.60;99.90;;;;;;5008525;28;20022;-79
2022/09/23 08:12:10;;;;;;;2.00;0.90;;;11.80;99.90;;;;;;5007188;28;20034;-78
2022/09/23 08:14:37;;;;;;;1.88;0.80;;;11.80;99.90;;;;;;4990204;28;20032;-78
2022/09/23 08:17:04;;;;;;;3.35;1.02;;;11.90;99.90;;;;;;5008154;28;20072;-78
2022/09/23 08:19:30;;;;;;;1.75;0.90;;;11.90;99.90;;;;;;4990339;28;20360;-79
2022/09/23 08:21:56;;;;;;;1.65;0.90;;;12.00;99.90;;;;;;5006417;28;20030;-78
2022/09/23 08:24:23;;;;;;;1.42;0.73;;;12.10;99.90;;;;;;5006609;28;20501;-79
2022/09/23 08:26:53;;;;;;;2.17;0.98;;;12.20;99.90;;;;;;5006255;28;20041;-80
2022/09/23 08:29:19;;;;;;;;;;;12.30;99.90;;;;;;5008442;28;20013;-78
2022/09/23 08:31:45;;;;;;;2.80;0.73;;;12.40;99.90;;;;;;5008337;28;19909;-78
2022/09/23 08:34:12;;;;;;;3.20;0.80;;;12.50;99.90;;;;;;5006099;28;20033;-79
2022/09/23 08:36:38;;;;;;;1.83;0.73;;;12.70;99.90;;;;;;5008229;28;20177;-79
2022/09/23 08:39:04;;;;;;;2.80;0.80;;;12.90;99.90;;;;;;5004877;28;20109;-78
2022/09/23 08:41:51;;;;;;;2.00;1.17;;;13.00;99.90;;;;;;4987195;28;20046;-80
2022/09/23 08:44:25;;;;;;;3.03;0.70;;;13.10;99.90;;;;;;4990346;28;20042;-78
2022/09/23 08:47:06;;;;;;;2.45;0.80;;;13.40;99.90;;;;;;5022821;28;20141;-79
2022/09/23 08:49:40;;;;;;;2.28;1.05;;;13.60;99.90;;;;;;5007234;28;20031;-77
2022/09/23 08:52:13;;;;;;;2.03;0.90;;;13.70;99.90;;;;;;5006548;28;20049;-79
2022/09/23 08:54:39;;;;;;;1.73;0.82;;;13.70;99.90;;;;;;4986083;28;20037;-79
2022/09/23 08:57:08;;;;;;;1.80;1.27;;;13.90;99.90;;;;;;5006288;28;20056;-79
2022/09/23 08:59:42;;;;;;;1.65;0.73;;;14.00;99.90;;;;;;5006421;28;20045;-79
2022/09/23 09:02:17;;;;;;;2.20;0.80;;;14.10;99.90;;;;;;5005649;28;20408;-78
2022/09/23 09:04:46;;;;;;;1.88;0.70;;;14.20;99.90;;;;;;5010243;28;20030;-78
2022/09/23 09:07:17;;;;;;;3.03;0.83;;;14.40;99.90;;;;;;5006998;28;20030;-80
2022/09/23 09:09:59;;;;;;;1.60;0.57;;;14.50;99.90;;;;;;5009747;28;20281;-79
2022/09/23 09:12:31;;;;;;;1.90;0.73;;;14.40;99.90;;;;;;5006128;28;20470;-78
2022/09/23 09:15:01;;;;;;;1.60;0.90;;;14.20;99.90;;;;;;5021080;28;20029;-78
2022/09/23 09:17:35;;;;;;;4.18;1.10;;;14.40;99.90;;;;;;5006983;28;20084;-78
2022/09/23 09:20:26;;;;;;;2.70;0.70;;;14.40;99.90;;;;;;5005576;28;20105;-78
2022/09/23 09:22:56;;;;;;;1.38;0.65;;;14.40;99.90;;;;;;5021729;28;20029;-80
2022/09/23 09:25:57;;;;;;;1.63;0.70;;;14.60;99.90;;;;;;5006793;28;20062;-79
2022/09/23 09:28:29;;;;;;;2.33;0.70;;;14.60;99.90;;;;;;5018426;28;20050;-77
2022/09/23 09:31:00;;;;;;;2.22;0.80;;;14.60;99.90;;;;;;5026611;28;20478;-79
2022/09/23 09:33:56;;;;;;;2.72;0.90;;;14.60;99.90;;;;;;5009546;28;20049;-80
2022/09/23 09:36:47;;;;;;;1.50;0.63;;;14.60;99.90;;;;;;5009398;28;20026;-79
2022/09/23 09:39:14;;;;;;;2.40;0.95;;;14.80;99.90;;;;;;5008190;28;20033;-79
2022/09/23 09:41:46;;;;;;;1.60;0.65;;;14.90;99.90;;;;;;5010607;28;20097;-79
2022/09/23 09:44:39;;;;;;;1.30;0.60;;;15.00;99.90;;;;;;5013751;28;20148;-79
2022/09/23 09:47:27;;;;;;;2.67;0.70;;;15.20;99.90;;;;;;5007860;28;20108;-78
2022/09/23 09:50:07;;;;;;;1.50;0.60;;;15.30;99.90;;;;;;5010103;28;20204;-79
2022/09/23 09:52:34;;;;;;;1.38;0.70;;;15.60;99.90;;;;;;5026228;28;20018;-78
2022/09/23 09:55:11;;;;;;;1.85;0.65;;;15.70;99.90;;;;;;5008775;28;20057;-77
2022/09/23 09:57:52;;;;;;;2.35;0.70;;;15.90;99.90;;;;;;5023723;28;20049;-79
2022/09/23 10:00:21;;;;;;;1.92;0.88;;;16.00;99.90;;;;;;5010197;28;20025;-79
2022/09/23 10:03:04;;;;;;;1.95;0.70;;;16.00;99.90;;;;;;4993573;28;20080;-79
2022/09/23 10:05:33;;;;;;;2.00;0.70;;;16.00;99.90;;;;;;5009175;28;20041;-78
2022/09/23 10:08:33;;;;;;;3.05;0.80;;;16.10;99.90;;;;;;5008922;28;20026;-79
2022/09/23 10:11:14;;;;;;;1.92;0.70;;;16.10;99.90;;;;;;5009966;28;20095;-80
2022/09/23 10:13:41;;;;;;;1.92;0.65;;;16.10;99.90;;;;;;5010997;28;20316;-79
2022/09/23 10:16:08;;;;;;;2.00;0.70;;;16.10;99.90;;;;;;5009260;28;20026;-79
2022/09/23 10:18:37;;;;;;;2.88;0.65;;;16.20;99.90;;;;;;4992604;28;20037;-78
2022/09/23 10:21:15;;;;;;;1.77;0.80;;;16.20;99.90;;;;;;5007892;28;20045;-79
2022/09/23 10:23:47;;;;;;;1.88;0.90;;;16.30;99.90;;;;;;5024891;28;20034;-79
2022/09/23 10:26:17;;;;;;;2.20;0.90;;;16.10;99.90;;;;;;5024411;28;20402;-79
2022/09/23 10:28:58;;;;;;;2.55;1.15;;;16.00;99.90;;;;;;5013723;28;20401;-79
2022/09/23 10:31:25;;;;;;;3.10;0.95;;;16.20;99.90;;;;;;5024686;28;20125;-79
2022/09/23 10:33:59;;;;;;;2.75;0.70;;;16.20;99.90;;;;;;5010028;28;20429;-78
2022/09/23 10:36:30;;;;;;;3.03;1.15;;;16.50;99.90;;;;;;5010281;28;20030;-78
2022/09/23 10:48:12;;;;;;;3.47;0.68;;;17.00;99.90;;;;;;5010174;28;20081;-79
2022/09/23 10:50:47;;;;;;;1.88;0.90;;;16.90;99.90;;;;;;5010072;28;20022;-79
2022/09/23 10:53:29;;;;;;;2.50;0.73;;;16.90;99.90;;;;;;5009039;28;20030;-78
2022/09/23 10:56:08;;;;;;;2.22;0.55;;;17.00;99.90;;;;;;5024963;28;20065;-79
2022/09/23 10:59:04;;;;;;;3.40;0.70;;;17.10;99.90;;;;;;5024068;28;20034;-79
2022/09/23 11:01:30;;;;;;;1.67;0.63;;;17.10;99.90;;;;;;5022838;28;20474;-79
2022/09/23 11:04:00;;;;;;;2.72;0.70;;;17.20;99.90;;;;;;5009541;28;20076;-81
2022/09/23 11:06:44;;;;;;;1.83;0.70;;;17.20;99.90;;;;;;5012007;28;20053;-79
2022/09/23 11:09:22;;;;;;;1.33;0.60;;;17.30;99.90;;;;;;5010389;28;20037;-80
2022/09/23 11:11:58;;;;;;;1.10;0.40;;;17.20;99.90;;;;;;5008507;28;20112;-79
2022/09/23 11:14:54;;;;;;;1.42;0.50;;;17.30;99.90;;;;;;5022298;28;20156;-78
2022/09/23 11:17:25;;;;;;;2.85;0.70;;;17.10;99.90;;;;;;5008867;28;20699;-79
2022/09/23 11:20:13;;;;;;;4.70;0.68;;;17.00;99.90;;;;;;5010058;28;20048;-79
2022/09/23 11:23:11;;;;;;;1.42;0.73;;;16.80;99.90;;;;;;5011657;28;20058;-79
2022/09/23 11:25:55;;;;;;;2.60;0.70;;;17.00;99.90;;;;;;5007404;28;20037;-79
2022/09/23 11:28:42;;;;;;;1.50;0.60;;;17.10;99.90;;;;;;5024146;28;20061;-78
2022/09/23 11:31:13;;;;;;;1.60;0.60;;;17.10;99.90;;;;;;5007244;28;20109;-79
2022/09/23 11:34:01;;;;;;;1.20;0.60;;;17.10;99.90;;;;;;5009034;28;20038;-79
2022/09/23 11:36:35;;;;;;;1.73;0.60;;;17.40;99.90;;;;;;5023391;28;20049;-80
2022/09/23 11:39:13;;;;;;;2.05;0.80;;;17.30;99.90;;;;;;5009790;28;20034;-79
2022/09/23 11:41:41;;;;;;;1.35;0.55;;;17.20;99.90;;;;;;5009067;28;20113;-79
2022/09/23 11:44:22;;;;;;;1.48;0.60;;;17.50;99.90;;;;;;5006370;28;20034;-79
2022/09/23 11:46:57;;;;;;;1.60;0.70;;;17.40;99.90;;;;;;5023440;28;20399;-79
2022/09/23 11:49:36;;;;;;;2.05;0.60;;;17.20;99.90;;;;;;5010514;28;20030;-80
2022/09/23 11:52:26;;;;;;;3.17;0.70;;;17.50;99.90;;;;;;5005529;28;20036;-79
2022/09/23 11:55:05;;;;;;;1.77;0.70;;;17.60;99.90;;;;;;5005946;28;20034;-79
2022/09/23 11:57:47;;;;;;;2.00;0.60;;;17.50;99.90;;;;;;5023580;28;20030;-80
2022/09/23 12:00:21;;;;;;;2.65;0.60;;;17.60;99.90;;;;;;5007065;28;20056;-79
2022/09/23 12:03:17;;;;;;;2.28;0.60;;;17.70;99.90;;;;;;5007236;28;20070;-80
2022/09/23 12:06:12;;;;;;;1.67;0.60;;;17.80;99.90;;;;;;5007776;28;20026;-79
2022/09/23 12:08:38;;;;;;;3.53;1.15;;;17.90;99.90;;;;;;5008449;28;20030;-79
2022/09/23 12:11:13;;;;;;;1.58;0.73;;;17.70;99.90;;;;;;5006544;28;20066;-79
2022/09/23 12:14:02;;;;;;;2.50;0.73;;;17.90;99.90;;;;;;5008382;28;20429;-79
2022/09/23 12:16:52;;;;;;;3.28;1.10;;;17.80;99.90;;;;;;4990646;28;20049;-79
2022/09/23 12:19:46;;;;;;;3.60;1.00;;;17.70;99.90;;;;;;5005278;28;20152;-79
2022/09/23 12:22:27;;;;;;;2.17;1.00;;;17.90;99.90;;;;;;5005472;28;20034;-79
2022/09/23 12:25:12;;;;;;;2.13;1.00;;;17.90;99.90;;;;;;5005916;28;20030;-80
2022/09/23 12:27:42;;;;;;;2.88;0.80;;;18.10;99.90;;;;;;5023713;28;20485;-80
2022/09/23 12:30:19;;;;;;;7.25;1.50;;;18.20;99.90;;;;;;5008217;28;20113;-79
2022/09/23 12:32:45;;;;;;;4.40;1.10;;;17.90;99.90;;;;;;5023230;28;20080;-79
2022/09/23 12:35:22;;;;;;;2.08;1.05;;;18.10;99.90;;;;;;5011735;28;20034;-79
2022/09/23 12:37:48;;;;;;;3.65;0.90;;;18.20;99.90;;;;;;5020813;28;20033;-79
2022/09/23 12:40:29;;;;;;;1.92;0.70;;;18.40;99.90;;;;;;5007192;28;20105;-79
2022/09/23 12:43:00;;;;;;;2.45;0.80;;;18.50;99.90;;;;;;5005493;28;20104;-79
2022/09/23 12:45:33;;;;;;;2.95;1.08;;;18.40;99.90;;;;;;4989422;28;20079;-79
2022/09/23 12:48:14;;;;;;;2.80;0.75;;;18.40;99.90;;;;;;5007708;28;20030;-79
2022/09/23 12:50:55;;;;;;;3.33;1.17;;;18.40;99.90;;;;;;5022538;28;20129;-79
2022/09/23 12:53:48;;;;;;;2.80;0.98;;;18.50;99.90;;;;;;5006303;28;20026;-80
2022/09/23 12:56:21;;;;;;;2.55;1.08;;;18.50;99.90;;;;;;5017291;28;20069;-80
2022/09/23 12:58:47;;;;;;;2.60;0.95;;;18.40;99.90;;;;;;5009439;28;20100;-80
2022/09/23 13:01:21;;;;;;;3.78;0.98;;;18.30;99.90;;;;;;5006968;28;20109;-80
2022/09/23 13:07:00;;;;;;;7.28;1.25;;;18.30;99.90;;;;;;5007582;28;20033;-80
2022/09/23 13:09:31;;;;;;;3.10;1.10;;;18.30;99.90;;;;;;5011385;28;20026;-79
2022/09/23 13:12:04;;;;;;;3.95;1.00;;;18.20;99.90;;;;;;5007497;28;20042;-80
2022/09/23 13:14:32;;;;;;;3.17;1.00;;;18.30;99.90;;;;;;4988994;28;20030;-80
2022/09/23 13:16:58;;;;;;;3.13;1.20;;;18.20;99.90;;;;;;5007276;28;20037;-79
2022/09/23 13:19:30;;;;;;;3.08;1.40;;;18.10;99.90;;;;;;5007299;28;20033;-79
2022/09/23 13:22:02;;;;;;;3.03;1.02;;;18.00;99.90;;;;;;5010239;28;20155;-79
2022/09/23 13:24:40;;;;;;;3.15;1.50;;;18.00;99.90;;;;;;4989390;28;20064;-79
2022/09/23 13:27:29;;;;;;;2.15;0.80;;;18.00;99.90;;;;;;5007485;28;20030;-79
2022/09/23 13:30:25;;;;;;;3.10;0.70;;;18.10;99.90;;;;;;5006144;28;20148;-79
2022/09/23 13:33:15;;;;;;;4.40;0.65;;;18.20;99.90;;;;;;5013512;28;20540;-80
2022/09/23 13:35:52;;;;;;;2.53;0.60;;;18.20;99.90;;;;;;5022046;28;20144;-79